Paynes Store, North Carolina
Current Conditions -  °F | °C
As of 6:53 PM on Friday 19 Dec 2014 (Local Time) from KHKY Reporting Station
Clear Clear  
Wind Chill: 48°   Ceiling: Unl
Heat Index: 48°   Visibility: 10mi
Dew Point: 31°   Wind: 0mph
Humidity: 52%   Direction: NA
Pressure: 30.13"   Gusts: NA
Location:  35.9243°N, 81.216°W
Report Text: KHKY 192353Z AUTO 00000KT 10SM CLR 09/M01 A3013 RMK AO2 SLP197 T00891006 10122 20083 53009
Loading
Personal Weather Stations






























Interactive Weather Map New forecast layout! Learn more

10-Day Weather Forecast

Advertisements
Track Severe Weather on mobile